Time;durP1;ratioP1;P1;durP2;ratioP2;P2;SDS_P1;SDS_P2;PMS_P1;PMS_P2;Temp;Humidity;BMP_temperature;BMP_pressure;BME280_temperature;BME280_humidity;BME280_pressure;Samples;Min_cycle;Max_cycle;Signal;HPM_P1;HPM_P2
2022/10/27 05:05:17;;;;;;;24.35;13.23;;;;;;;13.01;100.00;102116.56;5069625;28;20052;-73
2022/10/27 05:07:49;;;;;;;30.65;12.82;;;;;;;13.02;100.00;102113.38;5072323;28;20048;-74
2022/10/27 05:10:14;;;;;;;19.38;12.15;;;;;;;13.00;100.00;102114.91;5075602;28;20541;-73
2022/10/27 05:12:40;;;;;;;19.92;12.38;;;;;;;12.99;100.00;102114.09;5091339;22;20066;-75
2022/10/27 05:15:05;;;;;;;19.08;12.52;;;;;;;13.05;100.00;102117.47;5066765;28;20134;-73
2022/10/27 05:17:31;;;;;;;27.55;13.32;;;;;;;13.03;100.00;102119.81;5069653;28;20060;-76
2022/10/27 05:19:56;;;;;;;18.15;12.05;;;;;;;13.02;100.00;102112.56;5061878;28;20410;-76
2022/10/27 05:22:21;;;;;;;19.15;12.93;;;;;;;13.02;100.00;102106.94;5062975;28;20063;-74
2022/10/27 05:24:47;;;;;;;21.75;12.98;;;;;;;12.96;100.00;102116.81;5039935;28;20027;-76
2022/10/27 05:27:12;;;;;;;18.83;10.05;;;;;;;12.99;100.00;102118.91;5065062;28;20050;-73
2022/10/27 05:29:37;;;;;;;24.50;13.32;;;;;;;12.95;100.00;102106.78;5069023;28;20034;-73
2022/10/27 05:32:02;;;;;;;15.38;11.27;;;;;;;12.95;100.00;102113.19;5064143;28;20085;-75
2022/10/27 05:34:28;;;;;;;20.00;11.90;;;;;;;12.98;100.00;102117.28;5072530;28;20028;-76
2022/10/27 05:36:53;;;;;;;19.50;11.35;;;;;;;12.95;100.00;102112.41;5075105;28;20024;-73
2022/10/27 05:39:18;;;;;;;26.15;11.70;;;;;;;12.97;100.00;102115.66;5076219;28;20111;-75
2022/10/27 05:41:44;;;;;;;20.98;12.70;;;;;;;12.97;100.00;102115.66;5074539;28;20116;-75
2022/10/27 05:44:09;;;;;;;19.08;11.48;;;;;;;12.98;100.00;102117.28;5073768;28;20059;-73
2022/10/27 05:46:34;;;;;;;20.98;11.35;;;;;;;12.97;100.00;102116.47;5075621;28;20666;-75
2022/10/27 05:49:00;;;;;;;16.00;10.73;;;;;;;12.98;100.00;102120.09;5067890;28;20070;-73
2022/10/27 05:51:25;;;;;;;16.40;11.07;;;;;;;12.98;100.00;102114.47;5069657;28;20402;-74
2022/10/27 05:53:50;;;;;;;16.75;10.70;;;;;;;12.97;100.00;102115.66;5068965;28;20491;-73
2022/10/27 05:56:16;;;;;;;15.93;10.60;;;;;;;12.94;100.00;102119.97;5072504;28;20101;-73
2022/10/27 05:58:42;;;;;;;20.65;11.15;;;;;;;12.95;100.00;102116.00;5050415;28;21371;-74
2022/10/27 06:01:07;;;;;;;19.25;10.95;;;;;;;12.94;100.00;102119.97;5066852;28;20063;-74
2022/10/27 06:03:32;;;;;;;20.10;10.80;;;;;;;12.95;100.00;102118.00;5055047;28;20044;-73
2022/10/27 06:06:02;;;;;;;15.90;10.82;;;;;;;12.98;100.00;102111.66;5054845;28;20046;-75
2022/10/27 06:08:28;;;;;;;15.23;8.65;;;;;;;13.01;100.00;102113.75;5034866;28;20503;-74
2022/10/27 06:10:55;;;;;;;19.42;9.40;;;;;;;13.03;100.00;102108.59;5031572;28;20330;-73
2022/10/27 06:13:20;;;;;;;21.20;11.05;;;;;;;13.01;100.00;102116.56;5032276;28;20037;-74
2022/10/27 06:15:46;;;;;;;16.98;7.30;;;;;;;13.56;100.00;102119.44;5034189;28;20021;-73
2022/10/27 06:18:12;;;;;;;8.95;5.15;;;;;;;14.08;100.00;102118.09;5031035;28;20033;-74
2022/10/27 06:20:37;;;;;;;21.25;10.35;;;;;;;13.43;100.00;102115.97;5026946;28;20032;-75
2022/10/27 06:23:03;;;;;;;18.13;10.27;;;;;;;13.29;100.00;102121.25;5040027;28;20519;-74
2022/10/27 06:25:28;;;;;;;18.98;8.85;;;;;;;13.24;100.00;102119.50;5014963;28;20044;-73
2022/10/27 06:27:54;;;;;;;19.55;9.85;;;;;;;13.15;100.00;102122.50;5040441;28;20037;-73
2022/10/27 06:30:19;;;;;;;16.08;9.15;;;;;;;13.14;100.00;102120.88;5035905;28;20523;-73
2022/10/27 06:32:44;;;;;;;15.02;8.82;;;;;;;13.11;100.00;102110.38;5023814;28;20064;-75
2022/10/27 06:35:10;;;;;;;18.90;9.68;;;;;;;13.13;100.00;102113.63;5031505;28;20689;-73
2022/10/27 06:37:39;;;;;;;14.07;9.07;;;;;;;13.09;100.00;102111.91;5031687;28;20032;-74
2022/10/27 06:40:06;;;;;;;15.40;7.97;;;;;;;13.05;100.00;102111.84;5033621;28;20029;-75
2022/10/27 06:42:36;;;;;;;15.88;8.52;;;;;;;13.06;100.00;102118.28;5033300;28;20079;-74
2022/10/27 06:45:05;;;;;;;16.70;8.60;;;;;;;13.07;100.00;102119.88;5034198;28;20030;-76
2022/10/27 06:47:31;;;;;;;14.38;9.07;;;;;;;13.08;100.00;102121.53;5036878;28;20028;-73
2022/10/27 06:49:57;;;;;;;17.90;8.05;;;;;;;13.28;100.00;102116.75;5032192;28;20036;-72
2022/10/27 06:52:22;;;;;;;15.98;8.63;;;;;;;13.17;100.00;102114.50;5039564;28;20431;-72
2022/10/27 06:54:47;;;;;;;17.25;8.68;;;;;;;13.22;100.00;102114.25;5045000;28;20021;-72
2022/10/27 06:57:13;;;;;;;18.33;8.30;;;;;;;13.20;100.00;102125.03;5036178;28;20028;-75
2022/10/27 06:59:38;;;;;;;20.70;8.80;;;;;;;13.18;100.00;102112.53;5034754;28;20051;-74
2022/10/27 07:02:04;;;;;;;18.60;7.45;;;;;;;13.18;100.00;102116.16;5027707;28;20499;-72
2022/10/27 07:04:29;;;;;;;21.92;8.90;;;;;;;13.20;100.00;102113.81;5038112;28;20039;-73
2022/10/27 07:06:55;;;;;;;16.10;7.80;;;;;;;13.21;100.00;102126.66;5022353;28;20029;-73
2022/10/27 07:09:21;;;;;;;14.45;8.27;;;;;;;13.20;100.00;102119.41;5038129;28;20558;-73
2022/10/27 07:11:46;;;;;;;13.77;8.95;;;;;;;13.20;100.00;102108.19;5040119;28;20056;-73
2022/10/27 07:14:11;;;;;;;13.68;7.88;;;;;;;13.20;100.00;102115.81;5060057;28;20078;-74
2022/10/27 07:16:37;;;;;;;18.38;8.75;;;;;;;13.21;100.00;102109.78;5058414;28;20028;-73
2022/10/27 07:19:02;;;;;;;13.32;7.57;;;;;;;13.22;100.00;102105.81;5052079;28;20033;-73
2022/10/27 07:21:28;;;;;;;15.95;9.00;;;;;;;13.25;100.00;102117.50;5058957;28;20074;-73
2022/10/27 07:23:53;;;;;;;14.40;8.60;;;;;;;13.21;100.00;102118.22;5042794;28;20024;-73
2022/10/27 07:26:18;;;;;;;16.52;8.98;;;;;;;13.20;100.00;102111.00;5060831;28;20037;-74
2022/10/27 07:28:44;;;;;;;20.00;9.02;;;;;;;13.22;100.00;102111.44;5059514;28;20119;-76
2022/10/27 07:31:10;;;;;;;17.35;9.27;;;;;;;13.28;100.00;102108.31;5062186;28;20507;-73
2022/10/27 07:33:35;;;;;;;13.93;9.52;;;;;;;13.22;100.00;102105.81;5058687;28;20024;-73
2022/10/27 07:36:01;;;;;;;22.08;9.85;;;;;;;13.27;100.00;102103.91;5057886;28;20496;-73
2022/10/27 07:38:26;;;;;;;18.48;9.13;;;;;;;13.30;100.00;102100.38;5050785;28;20376;-74
2022/10/27 07:40:51;;;;;;;15.45;8.05;;;;;;;13.30;100.00;102098.41;5039691;28;20517;-73
2022/10/27 07:43:17;;;;;;;14.98;9.15;;;;;;;13.30;100.00;102100.38;5057943;28;20036;-74
2022/10/27 07:45:42;;;;;;;19.65;9.25;;;;;;;13.32;100.00;102103.63;5062321;28;20469;-73
2022/10/27 07:48:13;;;;;;;22.58;9.32;;;;;;;13.31;100.00;102102.03;5054222;28;20095;-73
2022/10/27 07:50:39;;;;;;;13.35;8.52;;;;;;;13.33;100.00;102108.91;5054643;28;20554;-73
2022/10/27 07:53:04;;;;;;;16.55;9.00;;;;;;;13.36;100.00;102110.97;5060796;28;20082;-73
2022/10/27 07:55:31;;;;;;;13.27;8.27;;;;;;;13.42;100.00;102103.88;5062899;28;20364;-73
2022/10/27 07:58:03;;;;;;;21.77;9.52;;;;;;;13.48;100.00;102095.16;5063725;28;20044;-73
2022/10/27 08:00:30;;;;;;;21.52;8.80;;;;;;;13.50;100.00;102101.22;5056227;28;20180;-72
2022/10/27 08:02:59;;;;;;;16.48;8.77;;;;;;;13.48;100.00;102095.16;5057489;28;20063;-74
2022/10/27 08:05:24;;;;;;;21.92;9.77;;;;;;;13.54;100.00;102105.75;5043794;28;20033;-74
2022/10/27 08:07:49;;;;;;;15.40;7.55;;;;;;;13.53;100.00;102106.91;5041843;28;20046;-72
2022/10/27 08:10:14;;;;;;;19.40;10.07;;;;;;;13.51;100.00;102098.03;5060167;28;20024;-72
2022/10/27 08:12:41;;;;;;;20.35;9.77;;;;;;;13.48;100.00;102100.78;5053764;28;20071;-74
2022/10/27 08:15:08;;;;;;;20.60;9.95;;;;;;;13.50;100.00;102104.84;5022421;28;20033;-74
2022/10/27 08:17:33;;;;;;;17.83;9.35;;;;;;;13.50;100.00;102104.03;5021181;28;20544;-73
2022/10/27 08:19:59;;;;;;;17.73;10.05;;;;;;;13.51;100.00;102106.47;5041838;28;20119;-73
2022/10/27 08:22:25;;;;;;;20.83;10.07;;;;;;;13.50;100.00;102104.84;5042862;28;20032;-72
2022/10/27 08:24:50;;;;;;;16.50;9.02;;;;;;;13.51;100.00;102098.03;5023466;28;20123;-73
2022/10/27 08:27:15;;;;;;;16.35;9.38;;;;;;;13.55;100.00;102106.56;5041369;28;20036;-73
2022/10/27 08:29:40;;;;;;;21.58;9.00;;;;;;;13.57;100.00;102104.19;5044074;28;20040;-73
2022/10/27 08:32:06;;;;;;;18.23;9.13;;;;;;;13.61;100.00;102105.88;5039182;28;20072;-74
2022/10/27 08:34:31;;;;;;;22.35;8.70;;;;;;;13.61;100.00;102105.88;5042805;28;20491;-73
2022/10/27 08:36:56;;;;;;;19.10;9.40;;;;;;;13.70;100.00;102102.84;5020792;28;20056;-73
2022/10/27 08:39:22;;;;;;;19.05;9.32;;;;;;;13.74;100.00;102105.75;5040385;28;20132;-73
2022/10/27 08:42:01;;;;;;;15.18;8.95;;;;;;;13.78;100.00;102101.03;5043035;28;20035;-74
2022/10/27 08:44:33;;;;;;;19.52;10.07;;;;;;;13.91;100.00;102104.50;5038563;28;20622;-73
2022/10/27 08:47:03;;;;;;;19.52;8.43;;;;;;;13.95;100.00;102097.75;5037015;28;20487;-73
2022/10/27 08:49:43;;;;;;;18.42;8.73;;;;;;;14.06;100.00;102099.97;5038996;28;20123;-73
2022/10/27 08:52:40;;;;;;;16.10;9.35;;;;;;;14.14;100.00;102107.38;5039014;28;20051;-72
2022/10/27 08:55:11;;;;;;;16.48;8.63;;;;;;;14.19;100.00;102107.06;5037758;28;20376;-73
2022/10/27 08:57:52;;;;;;;20.75;9.07;;;;;;;14.31;100.00;102101.25;5037679;28;20180;-73
2022/10/27 09:00:18;;;;;;;18.58;8.40;;;;;;;14.33;100.00;102100.88;5038849;28;20345;-73
2022/10/27 09:02:54;;;;;;;19.83;8.80;;;;;;;14.33;100.00;102107.31;5036627;28;20036;-73
2022/10/27 09:05:50;;;;;;;18.75;8.27;;;;;;;14.47;100.00;102105.97;5037240;28;20115;-74
2022/10/27 09:08:46;;;;;;;22.33;8.57;;;;;;;14.51;100.00;102101.22;5040043;28;20357;-73
2022/10/27 09:11:56;;;;;;;16.85;7.88;;;;;;;14.54;100.00;102106.09;5042622;28;20488;-72
2022/10/27 09:14:33;;;;;;;13.75;7.60;;;;;;;14.64;100.00;102106.31;5057027;28;21104;-73
2022/10/27 09:17:07;;;;;;;18.15;7.72;;;;;;;14.73;100.00;102103.22;5044488;28;20130;-74
2022/10/27 09:19:40;;;;;;;18.25;7.55;;;;;;;14.79;100.00;102106.56;5055816;28;20034;-73
2022/10/27 09:22:11;;;;;;;14.43;7.53;;;;;;;14.98;100.00;102094.38;5058160;28;20448;-73
2022/10/27 09:24:37;;;;;;;14.85;6.47;;;;;;;14.97;100.00;102095.56;5054350;28;20132;-73
2022/10/27 09:27:04;;;;;;;16.23;7.35;;;;;;;15.11;100.00;102092.94;5056960;28;20036;-73
2022/10/27 09:29:32;;;;;;;14.07;7.53;;;;;;;15.20;100.00;102087.88;5059596;28;20036;-73
2022/10/27 09:32:10;;;;;;;13.55;6.32;;;;;;;15.27;100.00;102080.72;5061393;28;20024;-73
2022/10/27 09:34:43;;;;;;;22.02;6.93;;;;;;;15.40;100.00;102080.06;5059332;28;20024;-75
2022/10/27 09:37:14;;;;;;;17.08;6.30;;;;;;;15.45;100.00;102073.28;5039798;28;20433;-74
2022/10/27 09:39:45;;;;;;;13.30;5.85;;;;;;;15.52;100.00;102059.28;5056430;28;20037;-73
2022/10/27 09:42:10;;;;;;;14.52;5.53;;;;;;;15.54;100.00;102068.19;5054048;28;20369;-73
2022/10/27 09:44:36;;;;;;;12.50;5.75;;;;;;;15.66;100.00;102061.47;5052328;28;20060;-74
2022/10/27 09:47:01;;;;;;;14.48;5.70;;;;;;;15.75;100.00;102049.94;5057376;28;20588;-74
2022/10/27 09:49:33;;;;;;;8.52;5.25;;;;;;;15.77;100.00;102053.16;5061425;28;20076;-73
2022/10/27 09:52:04;;;;;;;17.03;5.23;;;;;;;15.93;100.00;102056.56;5057508;28;20079;-72
2022/10/27 09:54:35;;;;;;;11.00;5.30;;;;;;;15.96;100.00;102055.81;5061569;28;20309;-72
2022/10/27 09:57:18;;;;;;;13.80;5.53;;;;;;;15.95;100.00;102048.53;5040251;28;20021;-73
2022/10/27 09:59:51;;;;;;;12.10;4.90;;;;;;;16.04;100.00;102048.22;5058784;28;20557;-73
2022/10/27 10:02:27;;;;;;;14.75;5.53;;;;;;;16.01;99.60;102054.63;5060715;28;20036;-72
2022/10/27 10:04:53;;;;;;;13.80;6.80;;;;;;;16.12;98.55;102058.38;5061014;28;20539;-73
2022/10/27 10:07:37;;;;;;;11.40;5.47;;;;;;;16.17;98.37;102060.03;5060471;28;20502;-72
2022/10/27 10:10:06;;;;;;;16.27;5.57;;;;;;;16.25;98.86;102056.09;5059702;28;20027;-74
2022/10/27 10:12:32;;;;;;;9.88;4.82;;;;;;;16.10;99.35;102049.47;5059508;28;20052;-72
2022/10/27 10:15:09;;;;;;;13.98;5.60;;;;;;;16.23;98.25;102047.19;5060291;28;20026;-73
2022/10/27 10:17:36;;;;;;;14.65;5.38;;;;;;;16.29;97.51;102042.81;5037916;28;20033;-73
2022/10/27 10:20:04;;;;;;;17.38;8.68;;;;;;;16.44;97.54;102032.44;5055122;28;20484;-74
2022/10/27 10:22:33;;;;;;;10.30;4.07;;;;;;;16.34;97.39;102033.16;5059917;28;20515;-72
2022/10/27 10:25:19;;;;;;;7.53;4.28;;;;;;;16.47;96.26;102028.84;5063943;28;20036;-74
2022/10/27 10:27:54;;;;;;;8.48;3.80;;;;;;;16.51;97.08;102029.69;5061274;28;21319;-74
2022/10/27 10:30:20;;;;;;;9.95;4.35;;;;;;;16.55;96.90;102024.88;5060972;28;20464;-72
2022/10/27 10:32:49;;;;;;;8.85;3.90;;;;;;;16.59;96.77;102013.59;5040955;28;20025;-72
2022/10/27 10:35:46;;;;;;;10.63;4.85;;;;;;;16.67;95.11;102009.63;5061150;28;20471;-73
2022/10/27 10:38:35;;;;;;;8.05;3.60;;;;;;;16.62;95.28;102013.63;5053912;28;20083;-73
2022/10/27 10:41:16;;;;;;;7.85;3.47;;;;;;;16.84;93.89;102003.31;5044316;28;20025;-72
2022/10/27 10:43:42;;;;;;;9.20;3.60;;;;;;;16.85;93.98;102004.94;5050721;28;20486;-72
2022/10/27 10:46:24;;;;;;;8.25;4.50;;;;;;;16.91;94.87;102004.53;5057825;28;20056;-71
2022/10/27 10:48:53;;;;;;;6.53;3.83;;;;;;;17.01;94.45;102012.28;5055916;28;20079;-73
2022/10/27 10:51:28;;;;;;;9.18;3.38;;;;;;;17.08;92.69;102006.69;5040284;28;20103;-72
2022/10/27 10:54:03;;;;;;;10.93;3.72;;;;;;;17.02;93.72;102009.06;5054866;28;20423;-71
2022/10/27 10:56:31;;;;;;;7.47;3.13;;;;;;;17.18;92.96;101999.44;5043441;28;20111;-72
2022/10/27 10:59:17;;;;;;;7.88;3.10;;;;;;;17.33;93.36;102000.31;5062513;28;20538;-72
2022/10/27 11:02:00;;;;;;;10.00;3.33;;;;;;;17.25;92.86;101996.66;5058242;28;20693;-75
2022/10/27 11:04:30;;;;;;;7.50;3.35;;;;;;;17.26;94.19;101984.94;5061953;28;20112;-71
2022/10/27 11:07:05;;;;;;;7.35;2.75;;;;;;;17.24;93.80;101973.22;5045943;28;20052;-73
2022/10/27 11:09:44;;;;;;;10.88;3.00;;;;;;;17.23;93.44;101974.41;5059984;28;20087;-71
2022/10/27 11:12:28;;;;;;;9.55;3.58;;;;;;;17.20;94.09;101965.91;5046613;28;20534;-72
2022/10/27 11:14:57;;;;;;;9.00;2.90;;;;;;;17.20;94.29;101968.75;5060998;28;20118;-73
2022/10/27 11:17:24;;;;;;;13.38;3.03;;;;;;;17.24;93.18;101959.09;5060537;28;21254;-73
2022/10/27 11:19:52;;;;;;;12.77;3.97;;;;;;;17.29;92.64;101955.06;5043604;28;20115;-73
2022/10/27 11:22:20;;;;;;;4.78;2.60;;;;;;;17.31;93.18;101949.81;5045677;28;20084;-72
2022/10/27 11:25:17;;;;;;;7.00;3.20;;;;;;;17.34;92.17;101957.47;5059926;28;20074;-75
2022/10/27 11:27:56;;;;;;;5.85;2.92;;;;;;;17.43;92.48;101960.78;5060228;28;20044;-72
2022/10/27 11:30:23;;;;;;;11.05;3.10;;;;;;;17.56;91.41;101961.22;5059125;28;20679;-75
2022/10/27 11:33:23;;;;;;;9.27;3.15;;;;;;;17.58;91.39;101963.63;5060633;28;20075;-73
2022/10/27 11:36:13;;;;;;;4.55;2.45;;;;;;;17.60;89.48;101959.19;5063357;28;20033;-71
2022/10/27 11:38:47;;;;;;;7.03;2.70;;;;;;;17.61;90.22;101963.63;5062625;28;20028;-73
2022/10/27 11:41:22;;;;;;;4.80;2.45;;;;;;;17.67;90.33;101953.53;5053895;28;20643;-74
2022/10/27 11:44:01;;;;;;;14.63;3.20;;;;;;;17.59;91.47;101951.09;5054822;28;20147;-72
2022/10/27 11:46:49;;;;;;;10.30;3.50;;;;;;;17.56;90.51;101935.72;5050393;28;21295;-74
2022/10/27 11:49:38;;;;;;;8.52;3.03;;;;;;;17.60;90.20;101935.72;5037937;28;20492;-72
2022/10/27 11:52:17;;;;;;;6.68;3.15;;;;;;;17.60;89.97;101942.22;5058344;28;20032;-72
2022/10/27 11:54:42;;;;;;;9.15;3.28;;;;;;;17.62;89.77;101934.09;5060609;28;20082;-74
2022/10/27 11:57:14;;;;;;;6.32;2.65;;;;;;;17.65;89.53;101936.16;5036328;28;20519;-75
2022/10/27 11:59:42;;;;;;;8.85;2.88;;;;;;;17.76;89.88;101939.00;5039657;28;20032;-73
2022/10/27 12:02:43;;;;;;;8.75;3.28;;;;;;;17.82;88.67;101939.41;5060159;28;20475;-72
2022/10/27 12:05:15;;;;;;;8.68;3.08;;;;;;;17.73;89.55;101925.66;5034558;28;20021;-72
2022/10/27 12:07:57;;;;;;;9.73;3.80;;;;;;;17.77;89.31;101917.13;5066602;28;20443;-72
2022/10/27 12:10:37;;;;;;;9.40;2.65;;;;;;;17.79;89.19;101917.53;5063408;28;20033;-73
2022/10/27 12:13:23;;;;;;;10.80;3.00;;;;;;;17.78;88.37;101910.28;5058813;28;20130;-74
2022/10/27 12:15:58;;;;;;;23.10;4.00;;;;;;;17.86;89.34;101903.44;5065358;28;20040;-72
2022/10/27 12:18:33;;;;;;;15.45;3.33;;;;;;;17.80;89.97;101905.03;5044948;28;20025;-73
2022/10/27 12:21:14;;;;;;;8.65;2.83;;;;;;;17.82;89.37;101896.94;5038797;28;20071;-73
2022/10/27 12:24:08;;;;;;;9.23;3.15;;;;;;;18.05;88.47;101894.53;5067086;28;20487;-73
2022/10/27 12:26:44;;;;;;;6.22;2.80;;;;;;;18.27;86.92;101895.31;5075460;28;20490;-72
2022/10/27 12:29:10;;;;;;;6.68;2.42;;;;;;;18.43;86.67;101883.56;5064927;28;20055;-73
2022/10/27 12:31:43;;;;;;;8.25;2.72;;;;;;;18.53;85.97;101879.09;5050416;28;20028;-72
2022/10/27 12:34:13;;;;;;;11.88;3.85;;;;;;;18.49;85.76;101879.09;5063261;28;20549;-72
2022/10/27 12:36:48;;;;;;;5.95;3.42;;;;;;;18.73;84.82;101876.59;5062521;28;20139;-75
2022/10/27 12:39:30;;;;;;;9.25;3.50;;;;;;;18.90;84.22;101891.97;5057347;28;20025;-72
2022/10/27 12:42:17;;;;;;;6.00;3.00;;;;;;;18.99;82.77;101880.97;5061883;28;20031;-72
2022/10/27 12:44:54;;;;;;;6.90;2.20;;;;;;;19.00;82.25;101884.63;5058657;28;20029;-72
2022/10/27 12:47:46;;;;;;;7.75;2.35;;;;;;;18.85;82.63;101879.00;5055722;28;20036;-73
2022/10/27 12:50:11;;;;;;;5.80;2.88;;;;;;;18.69;84.28;101881.47;5055583;28;20079;-75
2022/10/27 12:52:49;;;;;;;7.07;2.00;;;;;;;18.61;83.70;101877.03;5062401;28;20684;-72
2022/10/27 12:55:34;;;;;;;4.93;2.47;;;;;;;18.64;83.26;101867.72;5059906;28;20036;-76
2022/10/27 12:58:23;;;;;;;9.52;2.92;;;;;;;18.69;82.68;101870.13;5052229;28;20042;-72
2022/10/27 13:01:09;;;;;;;4.10;2.28;;;;;;;18.67;83.49;101861.22;5063555;28;20162;-72
2022/10/27 13:03:52;;;;;;;6.45;2.78;;;;;;;18.59;83.63;101868.94;5064606;28;20108;-71
2022/10/27 13:06:35;;;;;;;3.83;1.85;;;;;;;18.68;84.19;101868.53;5061348;28;20396;-71
2022/10/27 13:09:19;;;;;;;5.10;2.72;;;;;;;18.69;83.86;101859.56;5062739;28;20029;-71
2022/10/27 13:11:52;;;;;;;5.32;2.00;;;;;;;18.60;84.28;101853.53;5064971;28;20522;-73
2022/10/27 13:14:33;;;;;;;8.05;2.80;;;;;;;18.46;84.82;101845.06;5065852;28;20215;-72
2022/10/27 13:17:20;;;;;;;5.93;2.30;;;;;;;18.47;85.20;101853.19;5064798;28;20487;-72
2022/10/27 13:20:04;;;;;;;5.10;2.20;;;;;;;18.45;85.52;101855.63;5066044;28;20028;-73
2022/10/27 13:22:40;;;;;;;4.40;2.10;;;;;;;18.35;88.53;101836.59;5067628;28;20044;-72
2022/10/27 13:25:17;;;;;;;10.48;2.22;;;;;;;18.23;90.66;101828.53;5058937;28;20154;-72
2022/10/27 13:27:54;;;;;;;5.38;2.30;;;;;;;18.18;90.84;101828.97;5044508;28;20083;-73
2022/10/27 13:30:21;;;;;;;7.95;2.22;;;;;;;18.22;91.94;101833.41;5066430;28;20459;-73
2022/10/27 13:32:47;;;;;;;12.77;2.55;;;;;;;18.21;91.92;101816.78;5066285;28;20547;-73
2022/10/27 13:35:12;;;;;;;11.77;2.72;;;;;;;18.21;92.84;101811.13;5065609;28;20114;-73
2022/10/27 13:37:40;;;;;;;4.28;2.15;;;;;;;18.18;92.23;101806.28;5060544;28;20036;-74
2022/10/27 13:40:17;;;;;;;5.60;2.65;;;;;;;18.13;91.53;101799.03;5064047;28;20032;-72
2022/10/27 13:42:47;;;;;;;4.95;1.67;;;;;;;18.18;89.93;101797.78;5039979;28;20040;-73
2022/10/27 13:45:28;;;;;;;8.00;1.70;;;;;;;18.16;89.17;101800.22;5061726;28;20494;-73
2022/10/27 13:48:14;;;;;;;5.10;1.92;;;;;;;18.17;88.51;101801.81;5060424;28;20028;-73
2022/10/27 13:50:42;;;;;;;5.40;1.90;;;;;;;18.11;88.03;101794.97;5065055;28;20051;-72
2022/10/27 13:53:19;;;;;;;5.93;1.70;;;;;;;18.20;87.18;101784.81;5056949;28;20079;-73
2022/10/27 13:55:54;;;;;;;6.28;1.65;;;;;;;18.24;86.39;101787.66;5061569;28;20028;-73
2022/10/27 13:58:41;;;;;;;4.55;1.60;;;;;;;18.26;86.34;101788.06;5061858;28;20072;-73
2022/10/27 14:01:32;;;;;;;4.60;1.38;;;;;;;18.32;86.13;101783.59;5064993;28;20353;-74
2022/10/27 14:04:09;;;;;;;3.85;1.92;;;;;;;18.27;84.79;101772.66;5060197;28;20046;-72
2022/10/27 14:06:46;;;;;;;5.30;1.70;;;;;;;18.37;84.25;101780.31;5059623;28;20036;-74
2022/10/27 14:09:34;;;;;;;4.75;1.52;;;;;;;18.32;85.47;101777.91;5062170;28;20459;-72
2022/10/27 14:12:14;;;;;;;4.95;1.85;;;;;;;18.22;85.91;101775.91;5059417;28;20512;-73
2022/10/27 14:14:40;;;;;;;3.95;1.60;;;;;;;18.37;85.24;101776.69;5025995;28;20031;-72
2022/10/27 14:17:22;;;;;;;10.45;2.08;;;;;;;18.42;85.77;101776.25;5025406;28;20025;-72
2022/10/27 14:20:01;;;;;;;5.30;2.53;;;;;;;18.34;85.27;101775.47;5037028;28;20021;-72
2022/10/27 14:22:32;;;;;;;6.93;2.05;;;;;;;18.41;85.29;101766.13;5048107;28;20075;-72
2022/10/27 14:25:23;;;;;;;6.60;1.88;;;;;;;18.34;86.43;101761.31;5044108;28;20084;-72
2022/10/27 14:28:02;;;;;;;9.10;2.15;;;;;;;18.33;86.21;101756.84;5028655;28;20484;-73
2022/10/27 14:30:27;;;;;;;5.32;1.95;;;;;;;18.27;86.98;101758.47;5025980;28;20071;-73
2022/10/27 14:32:52;;;;;;;7.63;1.95;;;;;;;18.27;86.49;101752.81;5031874;28;20025;-73
2022/10/27 14:35:23;;;;;;;5.90;1.60;;;;;;;18.28;85.90;101749.59;5051193;28;20421;-74
2022/10/27 14:37:49;;;;;;;7.47;1.85;;;;;;;18.28;85.64;101743.13;5038000;28;20032;-72
2022/10/27 14:40:18;;;;;;;6.20;1.98;;;;;;;18.27;87.16;101736.63;5042356;28;20503;-74
2022/10/27 14:42:44;;;;;;;16.42;2.00;;;;;;;18.17;87.19;101737.47;5045329;28;20031;-75
2022/10/27 14:45:19;;;;;;;3.28;1.30;;;;;;;18.25;86.61;101738.25;5046713;28;20033;-73
2022/10/27 14:47:55;;;;;;;6.68;1.65;;;;;;;18.22;86.81;101737.06;5038716;28;20402;-73
2022/10/27 14:50:31;;;;;;;6.63;1.77;;;;;;;18.22;86.89;101733.41;5028679;28;20021;-75
2022/10/27 14:53:01;;;;;;;8.13;2.08;;;;;;;18.24;87.26;101725.31;5039429;28;20024;-76
2022/10/27 14:55:35;;;;;;;5.43;1.50;;;;;;;18.22;86.89;101733.41;5045729;28;20071;-73
2022/10/27 14:58:01;;;;;;;9.18;1.65;;;;;;;18.19;87.76;101731.38;5019381;28;20123;-72
2022/10/27 15:00:49;;;;;;;8.88;3.50;;;;;;;18.20;87.91;101731.00;5047221;28;20103;-73
2022/10/27 15:03:14;;;;;;;4.35;2.28;;;;;;;18.22;87.48;101730.59;5044373;28;20488;-72
2022/10/27 15:05:46;;;;;;;6.78;2.30;;;;;;;18.23;87.59;101735.03;5035361;28;20026;-73
2022/10/27 15:08:17;;;;;;;4.90;2.35;;;;;;;18.28;87.16;101740.28;5045309;28;20035;-72
2022/10/27 15:10:45;;;;;;;4.80;2.55;;;;;;;18.33;87.86;101739.03;5044339;28;20087;-73
2022/10/27 15:13:13;;;;;;;8.13;2.95;;;;;;;18.32;87.24;101745.91;5041455;28;20487;-72
2022/10/27 15:15:45;;;;;;;5.75;2.45;;;;;;;18.30;87.88;101740.69;5037772;28;20487;-76
2022/10/27 15:18:32;;;;;;;8.25;2.33;;;;;;;18.33;88.54;101756.03;5034684;28;20051;-74
2022/10/27 15:20:59;;;;;;;5.00;1.85;;;;;;;18.14;89.46;101751.66;5033436;28;20036;-74
2022/10/27 15:23:25;;;;;;;6.30;2.83;;;;;;;18.22;89.22;101751.22;5022135;28;20120;-72
2022/10/27 15:25:52;;;;;;;7.55;2.58;;;;;;;18.28;89.22;101771.44;5041465;28;20037;-74
2022/10/27 15:28:24;;;;;;;4.05;1.90;;;;;;;18.20;89.99;101775.53;5036278;28;20044;-75
2022/10/27 15:30:50;;;;;;;7.07;2.20;;;;;;;18.18;90.00;101777.97;5038338;28;20128;-72
2022/10/27 15:33:42;;;;;;;4.47;2.25;;;;;;;18.02;90.60;101784.06;5029097;28;20407;-73
2022/10/27 15:36:13;;;;;;;2.95;2.10;;;;;;;18.03;91.00;101783.66;5013205;28;20045;-72
2022/10/27 15:38:40;;;;;;;9.30;2.42;;;;;;;18.00;90.81;101784.44;5039569;28;20645;-74
2022/10/27 15:41:05;;;;;;;6.57;2.70;;;;;;;18.01;90.67;101786.09;5019144;28;20169;-74
2022/10/27 15:43:30;;;;;;;6.97;2.20;;;;;;;17.95;90.94;101776.38;5034757;28;20045;-74
2022/10/27 15:46:17;;;;;;;6.55;2.42;;;;;;;17.90;91.12;101782.47;5040107;28;20036;-72
2022/10/27 15:48:45;;;;;;;11.45;2.60;;;;;;;17.89;91.19;101772.34;5036690;28;20048;-76
2022/10/27 15:51:13;;;;;;;6.15;2.63;;;;;;;17.84;92.05;101773.56;5035841;28;20059;-73
2022/10/27 15:53:50;;;;;;;4.82;2.30;;;;;;;17.78;93.32;101765.88;5035567;28;20035;-72
2022/10/27 15:56:30;;;;;;;6.75;3.30;;;;;;;17.85;91.75;101774.38;5037309;28;20033;-72
2022/10/27 15:59:07;;;;;;;9.38;2.58;;;;;;;17.86;90.76;101756.19;5036931;28;21014;-72
2022/10/27 16:01:33;;;;;;;7.68;2.80;;;;;;;17.80;91.12;101757.78;5044771;28;20029;-73
2022/10/27 16:04:02;;;;;;;7.20;3.00;;;;;;;17.75;91.37;101766.66;5037715;28;20079;-72
2022/10/27 16:06:29;;;;;;;7.00;3.75;;;;;;;17.73;91.39;101769.09;5039709;28;20033;-73
2022/10/27 16:08:58;;;;;;;8.75;3.00;;;;;;;17.65;92.32;101757.78;5040392;28;20028;-73
2022/10/27 16:11:28;;;;;;;11.48;3.08;;;;;;;17.67;91.68;101771.53;5038060;28;20034;-76
2022/10/27 16:13:56;;;;;;;5.95;3.13;;;;;;;17.60;92.50;101778.03;5055516;28;20495;-72
2022/10/27 16:16:23;;;;;;;7.57;3.03;;;;;;;17.54;93.38;101773.97;5049317;28;20035;-73
2022/10/27 16:18:49;;;;;;;44.10;23.70;;;;;;;17.47;93.52;101768.28;5055627;28;20037;-72
2022/10/27 16:21:20;;;;;;;90.90;52.53;;;;;;;17.43;93.68;101767.47;5057393;28;20055;-72
2022/10/27 16:23:46;;;;;;;178.05;95.10;;;;;;;17.40;94.07;101768.31;5043036;28;20467;-73
2022/10/27 16:26:12;;;;;;;77.43;41.33;;;;;;;17.31;94.74;101754.56;5056011;28;20111;-72
2022/10/27 16:28:40;;;;;;;26.95;20.48;;;;;;;17.31;95.27;101757.38;5039670;28;20472;-72
2022/10/27 16:31:13;;;;;;;22.40;12.13;;;;;;;17.15;96.18;101752.09;5047061;28;20102;-71
2022/10/27 16:33:39;;;;;;;14.65;11.68;;;;;;;17.10;96.94;101771.47;5064203;28;20468;-71
2022/10/27 16:36:04;;;;;;;12.93;7.30;;;;;;;17.03;97.53;101760.97;5052456;28;20042;-71
2022/10/27 16:38:30;;;;;;;7.45;4.18;;;;;;;17.02;97.63;101770.69;5064020;28;20064;-71
2022/10/27 16:40:55;;;;;;;7.88;5.80;;;;;;;16.97;98.17;101762.56;5047245;28;20115;-71
2022/10/27 16:43:23;;;;;;;9.73;5.55;;;;;;;17.01;97.87;101758.56;5053308;28;20020;-71